createdAt,value
2022-08-22T00:00:14.224Z,94175.45
2022-08-22T00:02:45.979Z,94231.66
2022-08-22T00:02:54.564Z,94238.00
2022-08-22T00:03:12.195Z,94221.00
2022-08-22T00:03:15.576Z,94178.48
2022-08-22T00:05:39.670Z,94177.91
2022-08-22T00:08:32.968Z,94176.34
2022-08-22T00:11:15.429Z,94176.48
2022-08-22T00:14:17.770Z,94175.41
2022-08-22T00:17:18.683Z,94180.52
2022-08-22T00:19:51.093Z,94189.00
2022-08-22T00:22:30.124Z,94189.79
2022-08-22T00:25:26.131Z,94190.89
2022-08-22T00:28:13.940Z,94187.52
2022-08-22T00:31:03.754Z,94185.59
2022-08-22T00:33:54.488Z,94187.77
2022-08-22T00:36:30.632Z,94191.19
2022-08-22T00:39:16.367Z,94185.64
2022-08-22T00:42:05.204Z,94183.77
2022-08-22T00:45:03.138Z,94185.15
2022-08-22T00:47:39.717Z,94188.17
2022-08-22T00:50:26.287Z,94184.41
2022-08-22T00:53:21.354Z,94181.14
2022-08-22T00:56:03.325Z,94183.36
2022-08-22T00:58:39.759Z,94183.57
2022-08-22T01:01:12.190Z,94178.64
2022-08-22T01:03:45.332Z,94179.83
2022-08-22T01:06:21.498Z,94179.77
2022-08-22T01:09:02.312Z,94182.77
2022-08-22T01:11:55.081Z,94179.58
2022-08-22T01:14:34.701Z,94171.70
2022-08-22T01:18:01.197Z,94172.77
2022-08-22T01:20:53.931Z,94166.69
2022-08-22T01:23:35.925Z,94167.56
2022-08-22T01:26:30.314Z,94171.89
2022-08-22T01:29:35.078Z,94177.31
2022-08-22T01:32:44.954Z,94171.98
2022-08-22T01:35:38.090Z,94172.45
2022-08-22T01:38:19.696Z,94174.76
2022-08-22T01:41:37.690Z,94172.52
2022-08-22T01:44:35.262Z,94172.33
2022-08-22T01:47:19.278Z,94170.34
2022-08-22T01:49:58.692Z,94163.50
2022-08-22T01:52:43.171Z,94166.30
2022-08-22T01:55:33.709Z,94168.18
2022-08-22T01:58:15.540Z,94170.71
2022-08-22T02:00:55.053Z,94173.68
2022-08-22T02:03:51.679Z,94171.56
2022-08-22T02:06:37.754Z,94171.27
2022-08-22T02:09:30.220Z,94171.77
2022-08-22T02:12:21.412Z,94168.20
2022-08-22T02:15:23.022Z,94168.02
2022-08-22T02:18:13.571Z,94174.47
2022-08-22T02:21:26.682Z,94175.52
2022-08-22T02:24:36.037Z,94172.83
2022-08-22T02:27:24.333Z,94170.47
2022-08-22T02:30:09.048Z,94165.45
2022-08-22T02:32:43.813Z,94166.34
2022-08-22T02:35:14.874Z,94165.39
2022-08-22T02:38:03.761Z,94166.52
2022-08-22T02:40:40.045Z,94162.55
2022-08-22T02:43:24.046Z,94165.20
2022-08-22T02:46:20.723Z,94164.10
2022-08-22T02:49:21.709Z,94161.50
2022-08-22T02:52:09.810Z,94165.77
2022-08-22T02:54:48.494Z,94169.56
2022-08-22T02:57:36.242Z,94169.11
2022-08-22T03:00:30.910Z,94173.45
2022-08-22T03:03:07.190Z,94172.95
2022-08-22T03:05:37.057Z,94178.12
2022-08-22T03:08:09.337Z,94180.65
2022-08-22T03:10:54.726Z,94178.33
2022-08-22T03:13:57.071Z,94174.61
2022-08-22T03:16:36.744Z,94175.14
2022-08-22T03:19:18.364Z,94177.54
2022-08-22T03:22:07.796Z,94173.08
2022-08-22T03:25:01.872Z,94175.23
2022-08-22T03:27:46.216Z,94172.14
2022-08-22T03:30:22.048Z,94168.81
2022-08-22T03:33:15.171Z,94166.27
2022-08-22T03:35:42.447Z,94170.73
2022-08-22T03:38:33.735Z,94168.52
2022-08-22T03:41:12.734Z,94170.30
2022-08-22T03:44:12.293Z,94172.95
2022-08-22T03:46:55.791Z,94173.04
2022-08-22T03:49:41.655Z,94175.90
2022-08-22T03:52:57.806Z,94178.02
2022-08-22T03:55:49.489Z,94176.08
2022-08-22T03:58:37.302Z,94178.55
2022-08-22T04:01:14.003Z,94175.98
2022-08-22T04:04:02.751Z,94180.96
2022-08-22T04:07:05.439Z,94183.20
2022-08-22T04:09:59.953Z,94180.86
2022-08-22T04:13:01.627Z,94185.77
2022-08-22T04:15:50.126Z,94182.23
2022-08-22T04:18:45.693Z,94184.58
2022-08-22T04:21:46.080Z,94186.60
2022-08-22T04:24:31.655Z,94187.02
2022-08-22T04:27:17.570Z,94183.45
2022-08-22T04:29:56.184Z,94183.80
2022-08-22T04:32:30.649Z,94181.23
2022-08-22T04:35:18.099Z,94179.93
2022-08-22T04:38:04.706Z,94183.69
2022-08-22T04:40:43.219Z,94184.77
2022-08-22T04:43:16.534Z,94190.22
2022-08-22T04:46:33.598Z,94195.79
2022-08-22T04:49:16.033Z,94197.33
2022-08-22T04:51:55.191Z,94197.78
2022-08-22T04:55:01.011Z,94193.90
2022-08-22T04:57:55.331Z,94194.80
2022-08-22T05:00:23.690Z,94192.11
2022-08-22T05:02:58.770Z,94190.33
2022-08-22T05:05:39.543Z,94189.27
2022-08-22T05:08:11.730Z,94191.61
2022-08-22T05:10:46.689Z,94197.14
2022-08-22T05:13:32.407Z,94191.42
2022-08-22T05:16:06.092Z,94192.56
2022-08-22T05:18:40.276Z,94190.84
2022-08-22T05:21:11.128Z,94194.12
2022-08-22T05:23:51.461Z,94197.04
2022-08-22T05:26:21.695Z,94193.89
2022-08-22T05:29:01.136Z,94189.27
2022-08-22T05:31:34.954Z,94190.05
2022-08-22T05:34:08.243Z,94189.77
2022-08-22T05:37:08.091Z,94187.20
2022-08-22T05:39:42.932Z,94192.20
2022-08-22T05:42:27.817Z,94191.80
2022-08-22T05:44:59.501Z,94199.95
2022-08-22T05:47:41.476Z,94200.48
2022-08-22T05:50:35.313Z,94203.05
2022-08-22T05:53:07.669Z,94200.48
2022-08-22T05:55:56.420Z,94199.95
2022-08-22T05:58:47.000Z,94201.29
2022-08-22T06:01:28.903Z,94204.52
2022-08-22T06:04:18.901Z,94203.64
2022-08-22T06:07:20.056Z,94206.50
2022-08-22T06:09:47.347Z,94204.33
2022-08-22T06:12:43.172Z,94203.75
2022-08-22T06:15:22.714Z,94202.63
2022-08-22T06:18:06.821Z,94205.25
2022-08-22T06:20:50.354Z,94211.48
2022-08-22T06:23:47.459Z,94211.98
2022-08-22T06:26:20.722Z,94214.60
2022-08-22T06:28:57.842Z,94210.25
2022-08-22T06:31:51.895Z,94210.06
2022-08-22T06:34:27.506Z,94211.38
2022-08-22T06:37:01.932Z,94214.96
2022-08-22T06:39:35.678Z,94217.09
2022-08-22T06:42:23.435Z,94216.63
2022-08-22T06:45:06.568Z,94220.82
2022-08-22T06:47:41.833Z,94221.91
2022-08-22T06:50:17.005Z,94220.47
2022-08-22T06:53:17.074Z,94217.96
2022-08-22T06:55:49.979Z,94216.44
2022-08-22T06:58:36.524Z,94218.91
2022-08-22T07:01:12.243Z,94222.63
2022-08-22T07:03:50.791Z,94219.89
2022-08-22T07:06:28.754Z,94223.33
2022-08-22T07:08:56.710Z,94224.33
2022-08-22T07:11:37.096Z,94227.40
2022-08-22T07:14:15.070Z,94225.20
2022-08-22T07:17:04.634Z,94224.89
2022-08-22T07:19:41.799Z,94224.40
2022-08-22T07:22:30.747Z,94223.45
2022-08-22T07:25:11.236Z,94222.48
2022-08-22T07:28:36.651Z,94222.77
2022-08-22T07:31:25.884Z,94221.31
2022-08-22T07:34:17.989Z,94227.71
2022-08-22T07:37:01.792Z,94229.25
2022-08-22T07:39:39.420Z,94230.20
2022-08-22T07:42:22.591Z,94228.92
2022-08-22T07:45:15.901Z,94230.71
2022-08-22T07:48:17.201Z,94228.96
2022-08-22T07:50:57.657Z,94235.10
2022-08-22T07:53:42.740Z,94234.81
2022-08-22T07:56:24.333Z,94233.73
2022-08-22T07:58:59.058Z,94238.17
2022-08-22T08:01:27.231Z,94238.67
2022-08-22T08:04:02.165Z,94239.42
2022-08-22T08:06:32.355Z,94240.42
2022-08-22T10:23:36.051Z,94198.48
2022-08-22T10:26:42.819Z,94194.67
2022-08-22T10:29:24.571Z,94185.45
2022-08-22T10:32:06.012Z,94182.21
2022-08-22T10:34:45.286Z,94179.05
2022-08-22T10:37:30.959Z,94172.09
2022-08-22T10:40:13.406Z,94180.52
2022-08-22T10:42:59.658Z,94183.34
2022-08-22T10:45:39.317Z,94185.95
2022-08-22T10:48:08.788Z,94183.80
2022-08-22T10:50:45.240Z,94180.64
2022-08-22T10:53:37.208Z,94183.50
2022-08-22T10:56:21.308Z,94177.88
2022-08-22T10:59:13.168Z,94174.06
2022-08-22T11:01:56.452Z,94171.74
2022-08-22T11:04:31.740Z,94166.38
2022-08-22T11:07:11.185Z,94166.02
2022-08-22T11:09:43.098Z,94166.08
2022-08-22T11:12:34.832Z,94161.71
2022-08-22T11:15:28.502Z,94157.95
2022-08-22T11:18:21.078Z,94156.60
2022-08-22T11:21:08.466Z,94152.52
2022-08-22T11:24:00.687Z,94150.92
2022-08-22T11:26:47.227Z,94150.58
2022-08-22T11:29:34.504Z,94149.16
2022-08-22T11:32:23.364Z,94146.05
2022-08-22T11:35:00.396Z,94139.85
2022-08-22T11:37:42.773Z,94135.04
2022-08-22T11:40:19.556Z,94132.63
2022-08-22T11:43:27.735Z,94125.02
2022-08-22T11:46:20.872Z,94117.34
2022-08-22T11:49:25.767Z,94122.58
2022-08-22T11:52:07.097Z,94119.39
2022-08-22T11:54:51.792Z,94115.88
2022-08-22T11:57:54.738Z,94111.95
2022-08-22T12:00:28.674Z,94113.02
2022-08-22T12:03:17.569Z,94110.09
2022-08-22T12:05:51.887Z,94102.55
2022-08-22T12:08:49.748Z,94099.38
2022-08-22T12:11:37.386Z,94094.86
2022-08-22T12:14:26.868Z,94093.17
2022-08-22T12:17:55.365Z,94092.84
2022-08-22T12:20:46.645Z,94090.02
2022-08-22T12:23:43.687Z,94088.36
2022-08-22T12:26:51.782Z,94084.48
2022-08-22T12:29:40.051Z,94081.33
2022-08-22T12:32:49.959Z,94077.19
2022-08-22T12:35:40.376Z,94076.57
2022-08-22T12:38:28.350Z,94074.35
2022-08-22T12:41:28.303Z,94071.21
2022-08-22T12:44:17.056Z,94068.95
2022-08-22T12:47:05.762Z,94065.89
2022-08-22T12:49:58.615Z,94068.48
2022-08-22T12:52:58.490Z,94064.98
2022-08-22T12:55:33.730Z,94062.91
2022-08-22T12:58:09.597Z,94066.29
2022-08-22T13:00:49.498Z,94063.38
2022-08-22T13:03:35.492Z,94060.95
2022-08-22T13:06:37.958Z,94058.43
2022-08-22T13:09:28.438Z,94057.33
2022-08-22T13:12:02.443Z,94057.28
2022-08-22T13:14:34.696Z,94054.41
2022-08-22T13:17:15.167Z,94051.42
2022-08-22T13:20:02.216Z,94053.10
2022-08-22T13:22:33.820Z,94046.01
2022-08-22T13:25:27.410Z,94046.66
2022-08-22T13:27:59.468Z,94045.90
2022-08-22T13:30:44.170Z,94043.03
2022-08-22T13:33:26.176Z,94042.61
2022-08-22T13:36:38.009Z,94047.38
2022-08-22T13:39:25.653Z,94046.52
2022-08-22T13:42:01.533Z,94044.22
2022-08-22T13:44:40.173Z,94039.56
2022-08-22T13:47:15.038Z,94039.60
2022-08-22T13:49:47.219Z,94040.52
2022-08-22T13:52:52.604Z,94040.20
2022-08-22T13:55:50.184Z,94031.81
2022-08-22T13:58:39.788Z,94029.98
2022-08-22T14:01:28.526Z,94036.36
2022-08-22T14:04:28.849Z,94028.87
2022-08-22T14:07:04.727Z,94031.77
2022-08-22T14:09:45.244Z,94031.10
2022-08-22T14:12:50.307Z,94032.18
2022-08-22T14:15:32.218Z,94032.62
2022-08-22T14:18:18.565Z,94031.57
2022-08-22T14:20:48.545Z,94037.10
2022-08-22T14:23:29.774Z,94032.48
2022-08-22T14:26:01.638Z,94031.70
2022-08-22T14:28:33.838Z,94025.27
2022-08-22T14:31:09.047Z,94032.20
2022-08-22T14:33:40.930Z,94036.27
2022-08-22T14:36:20.122Z,94036.55
2022-08-22T14:39:07.287Z,94032.84
2022-08-22T14:41:55.552Z,94028.23
2022-08-22T14:44:39.140Z,94025.48
2022-08-22T14:47:54.371Z,94025.09
2022-08-22T14:50:49.671Z,94023.50
2022-08-22T14:53:19.969Z,94023.79
2022-08-22T14:56:27.991Z,94030.80
2022-08-22T14:59:09.221Z,94030.67
2022-08-22T15:02:02.071Z,94028.86
2022-08-22T15:04:43.286Z,94031.04
2022-08-22T15:07:29.183Z,94031.31
2022-08-22T15:10:23.924Z,94036.94
2022-08-22T15:12:58.950Z,94047.65
2022-08-22T15:15:52.796Z,94050.74
2022-08-22T15:18:23.814Z,94055.29
2022-08-22T15:21:08.643Z,94056.52
2022-08-22T15:23:45.118Z,94060.11
2022-08-22T15:26:25.805Z,94058.05
2022-08-22T15:29:18.592Z,94056.98
2022-08-22T15:31:52.024Z,94061.41
2022-08-22T15:34:35.936Z,94061.65
2022-08-22T15:37:18.389Z,94063.48
2022-08-22T15:40:13.179Z,94062.02
2022-08-22T15:42:51.497Z,94059.92
2022-08-22T15:45:38.142Z,94053.14
2022-08-22T15:48:10.788Z,94047.67
2022-08-22T15:50:55.914Z,94047.73
2022-08-22T15:53:45.633Z,94056.46
2022-08-22T15:56:26.179Z,94060.92
2022-08-22T15:59:33.916Z,94062.05
2022-08-22T16:02:47.713Z,94071.38
2022-08-22T16:05:37.823Z,94078.39
2022-08-22T16:08:09.813Z,94079.57
2022-08-22T16:10:50.459Z,94067.93
2022-08-22T16:13:34.821Z,94063.16
2022-08-22T16:17:04.072Z,94068.17
2022-08-22T16:19:33.963Z,94084.30
2022-08-22T16:22:00.660Z,94085.23
2022-08-22T16:24:33.977Z,94085.54
2022-08-22T16:27:22.861Z,94092.95
2022-08-22T16:30:13.312Z,94101.55
2022-08-22T16:32:51.793Z,94115.85
2022-08-22T16:35:57.205Z,94121.05
2022-08-22T16:38:36.850Z,94127.43
2022-08-22T16:41:05.680Z,94127.61
2022-08-22T16:43:32.970Z,94134.88
2022-08-22T16:46:01.911Z,94143.91
2022-08-22T16:48:40.033Z,94148.91
2022-08-22T16:51:18.897Z,94147.88
2022-08-22T16:54:06.811Z,94145.73
2022-08-22T16:56:50.776Z,94131.06
2022-08-22T16:59:40.150Z,94120.11
2022-08-22T17:02:24.800Z,94120.42
2022-08-22T17:05:05.441Z,94125.02
2022-08-22T17:08:00.987Z,94127.29
2022-08-22T17:10:49.065Z,94127.88
2022-08-22T17:13:54.451Z,94132.83
2022-08-22T17:16:36.944Z,94133.66
2022-08-22T17:19:20.843Z,94136.61
2022-08-22T17:21:59.238Z,94133.70
2022-08-22T17:24:45.783Z,94137.44
2022-08-22T17:27:15.508Z,94134.95
2022-08-22T17:30:04.017Z,94140.64
2022-08-22T17:32:42.029Z,94139.30
2022-08-22T17:35:15.128Z,94136.60
2022-08-22T17:38:01.872Z,94128.30
2022-08-22T17:40:44.801Z,94125.90
2022-08-22T17:43:48.423Z,94125.16
2022-08-22T17:46:28.391Z,94136.54
2022-08-22T17:49:11.689Z,94150.75
2022-08-22T17:52:07.379Z,94157.75
2022-08-22T17:55:16.364Z,94157.16
2022-08-22T17:58:01.345Z,94179.20
2022-08-22T18:00:36.805Z,94190.73
2022-08-22T18:03:15.804Z,94190.77
2022-08-22T18:06:10.309Z,94189.73
2022-08-22T18:11:40.396Z,94172.70
2022-08-22T18:14:22.427Z,94168.84
2022-08-22T18:16:52.938Z,94159.66
2022-08-22T18:19:52.337Z,94166.27
2022-08-22T18:22:37.654Z,94172.05
2022-08-22T18:25:11.396Z,94175.67
2022-08-22T18:28:10.103Z,94179.06
2022-08-22T18:31:02.605Z,94177.71
2022-08-22T18:33:36.026Z,94180.27
2022-08-22T18:36:11.624Z,94180.89
2022-08-22T18:38:49.837Z,94180.29
2022-08-22T18:41:23.669Z,94188.23
2022-08-22T18:43:54.437Z,94194.22
2022-08-22T18:46:54.993Z,94197.63
2022-08-22T18:49:24.831Z,94204.38
2022-08-22T18:52:20.881Z,94204.52
2022-08-22T18:55:38.500Z,94208.91
2022-08-22T18:58:20.648Z,94214.17
2022-08-22T19:01:00.172Z,94219.66
2022-08-22T19:04:00.650Z,94220.92
2022-08-22T19:06:48.692Z,94228.83
2022-08-22T19:09:55.014Z,94241.03
2022-08-22T19:12:31.987Z,94244.25
2022-08-22T19:15:55.512Z,94252.14
2022-08-22T19:18:35.578Z,94255.11
2022-08-22T19:21:57.674Z,94262.30
2022-08-22T19:24:27.581Z,94266.20
2022-08-22T19:27:19.762Z,94268.72
2022-08-22T19:29:46.748Z,94267.11
2022-08-22T19:52:12.398Z,94253.15
2022-08-22T20:03:12.720Z,94264.05
2022-08-22T20:06:13.788Z,94267.95
2022-08-22T20:09:08.563Z,94268.20
2022-08-22T20:11:43.281Z,94269.80
2022-08-22T20:14:31.683Z,94268.84
2022-08-22T20:17:26.679Z,94271.36
2022-08-22T20:20:27.902Z,94267.25
2022-08-22T20:23:23.266Z,94273.72
2022-08-22T20:25:53.408Z,94273.27
2022-08-22T20:28:44.260Z,94268.18
2022-08-22T20:31:21.706Z,94272.29
2022-08-22T20:33:53.789Z,94275.10
2022-08-22T20:36:28.863Z,94273.84
2022-08-22T20:39:06.422Z,94278.05
2022-08-22T20:41:50.715Z,94277.95
2022-08-22T20:44:33.424Z,94280.27
2022-08-22T20:47:08.215Z,94281.48
2022-08-22T20:49:54.165Z,94281.74
2022-08-22T20:52:24.127Z,94281.33
2022-08-22T20:55:27.152Z,94282.38
2022-08-22T20:58:23.369Z,94282.48
2022-08-22T21:00:54.863Z,94279.26
2022-08-22T21:03:40.405Z,94283.82
2022-08-22T21:06:17.302Z,94275.58
2022-08-22T21:08:46.856Z,94275.98
2022-08-22T21:38:17.646Z,94264.20
2022-08-22T21:40:44.426Z,94261.95
2022-08-22T21:47:43.660Z,94260.60
2022-08-22T21:51:06.606Z,94265.17
2022-08-22T21:57:35.700Z,94274.39
2022-08-22T22:00:02.781Z,94275.88
2022-08-22T22:02:37.463Z,94277.52
2022-08-22T22:05:15.311Z,94279.27
2022-08-22T22:07:47.163Z,94279.15
2022-08-22T22:10:17.220Z,94279.64
2022-08-22T22:12:46.388Z,94280.46
2022-08-22T22:15:20.978Z,94278.36
2022-08-22T22:17:47.860Z,94285.71
2022-08-22T22:20:16.362Z,94281.20
2022-08-22T22:22:46.589Z,94285.77
2022-08-22T22:25:40.946Z,94281.89
2022-08-22T22:28:16.657Z,94286.59
2022-08-22T22:30:44.922Z,94283.07
2022-08-22T22:33:12.084Z,94284.52
2022-08-22T22:35:41.100Z,94282.20
2022-08-22T22:38:08.690Z,94285.50
2022-08-22T22:40:35.537Z,94285.70
2022-08-22T22:43:02.696Z,94290.10
2022-08-22T22:45:29.935Z,94290.00
2022-08-22T22:47:57.250Z,94290.15
2022-08-22T22:50:24.677Z,94285.37
2022-08-22T22:52:51.552Z,94284.52
2022-08-22T22:55:23.983Z,94277.90
2022-08-22T22:57:59.034Z,94276.85
2022-08-22T23:00:30.913Z,94271.63
2022-08-22T23:03:03.895Z,94269.42
2022-08-22T23:05:32.530Z,94271.67
2022-08-22T23:07:59.621Z,94270.51
2022-08-22T23:10:27.912Z,94267.59
2022-08-22T23:13:00.157Z,94265.77
2022-08-22T23:15:27.663Z,94260.65
2022-08-22T23:17:54.858Z,94257.19
2022-08-22T23:20:22.099Z,94253.27
2022-08-22T23:22:49.122Z,94251.46
2022-08-22T23:25:16.196Z,94249.39
2022-08-22T23:27:43.624Z,94245.98
2022-08-22T23:30:11.539Z,94248.42
2022-08-22T23:32:39.036Z,94244.54
2022-08-22T23:35:08.070Z,94239.77
2022-08-22T23:37:34.918Z,94238.25
2022-08-22T23:40:02.681Z,94243.36
2022-08-22T23:42:29.685Z,94244.28
2022-08-22T23:44:57.162Z,94237.56
2022-08-22T23:51:17.587Z,94228.39
2022-08-22T23:53:50.086Z,94225.36
2022-08-22T23:56:27.091Z,94227.19
2022-08-22T23:58:54.078Z,94227.41
